Time;durP1;ratioP1;P1;durP2;ratioP2;P2;SDS_P1;SDS_P2;PMS_P1;PMS_P2;Temp;Humidity;BMP_temperature;BMP_pressure;BME280_temperature;BME280_humidity;BME280_pressure;Samples;Min_cycle;Max_cycle;Signal;HPM_P1;HPM_P2
2023/07/17 00:01:57;;;;;;;;;;;;;;;;;;5107998;28;20057;-59
2023/07/17 00:04:23;;;;;;;;;;;;;;;;;;5113054;28;20390;-59
2023/07/17 00:06:49;;;;;;;;;;;;;;;;;;5112920;28;19908;-59
2023/07/17 00:09:15;;;;;;;;;;;;;;;;;;5113258;28;19907;-59
2023/07/17 00:11:40;;;;;;;;;;;;;;;;;;5095807;28;19919;-59
2023/07/17 00:14:06;;;;;;;;;;;;;;;;;;5092518;28;19978;-59
2023/07/17 00:16:32;;;;;;;;;;;;;;;;;;5101704;28;20010;-60
2023/07/17 00:18:58;;;;;;;;;;;;;;;;;;5111369;28;19934;-59
2023/07/17 00:21:24;;;;;;;;;;;;;;;;;;5092149;28;20282;-59
2023/07/17 00:23:50;;;;;;;;;;;;;;;;;;5093716;28;19909;-59
2023/07/17 00:26:16;;;;;;;;;;;;;;;;;;5097423;28;20007;-59
2023/07/17 00:28:42;;;;;;;;;;;;;;;;;;5092343;28;19916;-59
2023/07/17 00:31:08;;;;;;;;;;;;;;;;;;5092213;28;19947;-59
2023/07/17 00:33:34;;;;;;;;;;;;;;;;;;5093611;28;19912;-59
2023/07/17 00:36:00;;;;;;;;;;;;;;;;;;5092775;28;20029;-59
2023/07/17 00:38:26;;;;;;;;;;;;;;;;;;5092640;28;20015;-59
2023/07/17 00:40:52;;;;;;;;;;;;;;;;;;5091105;28;19919;-59
2023/07/17 00:43:17;;;;;;;;;;;;;;;;;;5103992;28;19912;-59
2023/07/17 00:45:43;;;;;;;;;;;;;;;;;;5092543;28;20367;-59
2023/07/17 00:48:09;;;;;;;;;;;;;;;;;;5099373;28;19959;-59
2023/07/17 00:50:35;;;;;;;;;;;;;;;;;;5091739;28;19983;-59
2023/07/17 00:53:01;;;;;;;;;;;;;;;;;;5094446;28;20060;-59
2023/07/17 00:55:27;;;;;;;;;;;;;;;;;;5100121;28;20320;-59
2023/07/17 00:57:53;;;;;;;;;;;;;;;;;;5097557;28;20363;-59
2023/07/17 01:00:19;;;;;;;;;;;;;;;;;;5108503;28;20002;-59
2023/07/17 01:02:45;;;;;;;;;;;;;;;;;;5103252;28;19914;-59
2023/07/17 01:05:11;;;;;;;;;;;;;;;;;;5108230;28;19947;-59
2023/07/17 01:07:40;;;;;;;;;;;;;;;;;;5109153;28;19922;-59
2023/07/17 01:10:05;;;;;;;;;;;;;;;;;;5107584;28;19925;-59
2023/07/17 01:12:32;;;;;;;;;;;;;;;;;;5104405;28;20006;-59
2023/07/17 01:14:57;;;;;;;;;;;;;;;;;;5103532;28;19920;-60
2023/07/17 01:17:23;;;;;;;;;;;;;;;;;;5110886;28;20003;-59
2023/07/17 01:19:49;;;;;;;;;;;;;;;;;;5109835;28;20060;-59
2023/07/17 01:22:15;;;;;;;;;;;;;;;;;;5112463;28;20001;-59
2023/07/17 01:24:41;;;;;;;;;;;;;;;;;;5092827;28;20414;-59
2023/07/17 01:27:07;;;;;;;;;;;;;;;;;;5094291;28;19916;-59
2023/07/17 01:29:33;;;;;;;;;;;;;;;;;;5096939;28;20002;-59
2023/07/17 01:31:59;;;;;;;;;;;;;;;;;;5111980;28;19914;-59
2023/07/17 01:34:25;;;;;;;;;;;;;;;;;;5096209;28;19912;-59
2023/07/17 01:36:51;;;;;;;;;;;;;;;;;;5093412;28;20407;-59
2023/07/17 01:39:17;;;;;;;;;;;;;;;;;;5090963;28;19969;-59
2023/07/17 01:41:43;;;;;;;;;;;;;;;;;;5091617;28;19968;-59
2023/07/17 01:44:09;;;;;;;;;;;;;;;;;;5092652;28;20447;-59
2023/07/17 01:46:35;;;;;;;;;;;;;;;;;;5105706;28;19957;-59
2023/07/17 01:49:01;;;;;;;;;;;;;;;;;;5115518;28;19908;-59
2023/07/17 01:51:27;;;;;;;;;;;;;;;;;;5097302;28;19922;-59
2023/07/17 01:53:53;;;;;;;;;;;;;;;;;;5106326;28;19919;-59
2023/07/17 01:56:18;;;;;;;;;;;;;;;;;;5094373;28;19970;-59
2023/07/17 01:58:44;;;;;;;;;;;;;;;;;;5114016;28;19912;-59
2023/07/17 02:01:10;;;;;;;;;;;;;;;;;;5105362;28;19912;-59
2023/07/17 02:03:36;;;;;;;;;;;;;;;;;;5095225;28;19908;-59
2023/07/17 02:06:02;;;;;;;;;;;;;;;;;;5095093;28;19908;-59
2023/07/17 02:08:28;;;;;;;;;;;;;;;;;;5110691;28;19955;-58
2023/07/17 02:10:54;;;;;;;;;;;;;;;;;;5096925;28;20402;-59
2023/07/17 02:13:20;;;;;;;;;;;;;;;;;;5110910;28;20370;-59
2023/07/17 02:15:46;;;;;;;;;;;;;;;;;;5111995;28;19924;-59
2023/07/17 02:18:12;;;;;;;;;;;;;;;;;;5108420;28;19959;-59
2023/07/17 02:20:38;;;;;;;;;;;;;;;;;;5094859;28;19955;-59
2023/07/17 02:23:04;;;;;;;;;;;;;;;;;;5112870;28;20300;-59
2023/07/17 02:25:29;;;;;;;;;;;;;;;;;;5102513;28;19916;-59
2023/07/17 02:27:55;;;;;;;;;;;;;;;;;;5098248;28;19916;-59
2023/07/17 02:30:21;;;;;;;;;;;;;;;;;;5104646;28;20009;-58
2023/07/17 02:32:47;;;;;;;;;;;;;;;;;;5107801;28;19995;-59
2023/07/17 02:35:13;;;;;;;;;;;;;;;;;;5096642;28;20352;-59
2023/07/17 02:37:39;;;;;;;;;;;;;;;;;;5112043;28;19915;-59
2023/07/17 02:40:12;;;;;;;;;;;;;;;;;;5114389;28;19934;-59
2023/07/17 02:42:37;;;;;;;;;;;;;;;;;;5115145;28;19994;-59
2023/07/17 02:45:03;;;;;;;;;;;;;;;;;;5115013;28;19959;-59
2023/07/17 02:47:29;;;;;;;;;;;;;;;;;;5114011;28;19920;-59
2023/07/17 02:49:55;;;;;;;;;;;;;;;;;;5106164;28;19912;-59
2023/07/17 02:52:21;;;;;;;;;;;;;;;;;;5111066;28;19942;-59
2023/07/17 02:54:47;;;;;;;;;;;;;;;;;;5112914;28;19916;-59
2023/07/17 02:57:14;;;;;;;;;;;;;;;;;;5113990;28;20359;-59
2023/07/17 02:59:40;;;;;;;;;;;;;;;;;;5114609;28;19908;-59
2023/07/17 03:02:06;;;;;;;;;;;;;;;;;;5114349;28;19918;-59
2023/07/17 03:04:32;;;;;;;;;;;;;;;;;;5114350;28;20371;-59
2023/07/17 03:06:58;;;;;;;;;;;;;;;;;;5096223;28;20011;-59
2023/07/17 03:09:25;;;;;;;;;;;;;;;;;;5093863;28;19951;-59
2023/07/17 03:11:51;;;;;;;;;;;;;;;;;;5092162;28;20049;-59
2023/07/17 03:14:17;;;;;;;;;;;;;;;;;;5092588;28;19920;-59
2023/07/17 03:16:43;;;;;;;;;;;;;;;;;;5092927;28;19949;-59
2023/07/17 03:19:09;;;;;;;;;;;;;;;;;;5092943;28;19923;-59
2023/07/17 03:21:35;;;;;;;;;;;;;;;;;;5091776;28;20368;-59
2023/07/17 03:24:01;;;;;;;;;;;;;;;;;;5092655;28;19912;-59
2023/07/17 03:26:27;;;;;;;;;;;;;;;;;;5103430;28;19916;-59
2023/07/17 03:28:53;;;;;;;;;;;;;;;;;;5113163;28;19908;-59
2023/07/17 03:31:19;;;;;;;;;;;;;;;;;;5099511;28;19912;-59
2023/07/17 03:33:45;;;;;;;;;;;;;;;;;;5100605;28;20473;-59
2023/07/17 03:36:11;;;;;;;;;;;;;;;;;;5100926;28;19915;-59
2023/07/17 03:38:36;;;;;;;;;;;;;;;;;;5108791;28;20275;-59
2023/07/17 03:41:03;;;;;;;;;;;;;;;;;;5105738;28;20105;-59
2023/07/17 03:43:28;;;;;;;;;;;;;;;;;;5107859;28;19912;-59
2023/07/17 03:45:54;;;;;;;;;;;;;;;;;;5103876;28;19908;-59
2023/07/17 03:48:20;;;;;;;;;;;;;;;;;;5109206;28;19994;-59
2023/07/17 03:50:46;;;;;;;;;;;;;;;;;;5095030;28;19922;-59
2023/07/17 03:53:12;;;;;;;;;;;;;;;;;;5092497;28;20260;-59
2023/07/17 03:55:38;;;;;;;;;;;;;;;;;;5092298;28;19962;-59
2023/07/17 03:58:04;;;;;;;;;;;;;;;;;;5095710;28;19934;-59
2023/07/17 04:00:30;;;;;;;;;;;;;;;;;;5108442;28;19922;-59
2023/07/17 04:02:56;;;;;;;;;;;;;;;;;;5103158;28;19908;-59
2023/07/17 04:05:21;;;;;;;;;;;;;;;;;;5106322;28;20375;-59
2023/07/17 04:07:47;;;;;;;;;;;;;;;;;;5105083;28;20014;-59
2023/07/17 04:10:13;;;;;;;;;;;;;;;;;;5111227;28;20007;-59
2023/07/17 04:12:39;;;;;;;;;;;;;;;;;;5101180;28;20349;-59
2023/07/17 04:15:05;;;;;;;;;;;;;;;;;;5100413;28;19914;-59
2023/07/17 04:17:31;;;;;;;;;;;;;;;;;;5102849;28;20333;-59
2023/07/17 04:19:57;;;;;;;;;;;;;;;;;;5100567;28;19926;-59
2023/07/17 04:22:23;;;;;;;;;;;;;;;;;;5097632;28;20321;-59
2023/07/17 04:24:48;;;;;;;;;;;;;;;;;;5106594;28;19973;-59
2023/07/17 04:27:14;;;;;;;;;;;;;;;;;;5111581;28;20005;-59
2023/07/17 04:29:40;;;;;;;;;;;;;;;;;;5096952;28;19916;-59
2023/07/17 04:32:06;;;;;;;;;;;;;;;;;;5107499;28;19912;-59
2023/07/17 04:34:32;;;;;;;;;;;;;;;;;;5098498;28;20357;-59
2023/07/17 04:36:58;;;;;;;;;;;;;;;;;;5103314;28;20006;-59
2023/07/17 04:39:24;;;;;;;;;;;;;;;;;;5110029;28;19911;-59
2023/07/17 04:41:52;;;;;;;;;;;;;;;;;;5111663;28;19951;-59
2023/07/17 04:44:18;;;;;;;;;;;;;;;;;;5101478;28;20014;-59
2023/07/17 04:46:44;;;;;;;;;;;;;;;;;;5104868;28;20007;-59
2023/07/17 04:49:10;;;;;;;;;;;;;;;;;;5106515;28;20360;-59
2023/07/17 04:51:36;;;;;;;;;;;;;;;;;;5108959;28;19916;-59
2023/07/17 04:54:02;;;;;;;;;;;;;;;;;;5098704;28;19948;-59
2023/07/17 04:56:27;;;;;;;;;;;;;;;;;;5109966;28;20014;-59
2023/07/17 04:58:53;;;;;;;;;;;;;;;;;;5101942;28;20481;-59
2023/07/17 05:01:19;;;;;;;;;;;;;;;;;;5103535;28;19912;-59
2023/07/17 05:03:45;;;;;;;;;;;;;;;;;;5095014;28;19922;-59
2023/07/17 05:06:11;;;;;;;;;;;;;;;;;;5091710;28;19919;-59
2023/07/17 05:08:37;;;;;;;;;;;;;;;;;;5091893;28;20012;-59
2023/07/17 05:11:04;;;;;;;;;;;;;;;;;;5102327;28;20386;-59
2023/07/17 05:13:30;;;;;;;;;;;;;;;;;;5091873;28;20314;-59
2023/07/17 05:15:56;;;;;;;;;;;;;;;;;;5104055;28;19912;-59
2023/07/17 05:18:22;;;;;;;;;;;;;;;;;;5095187;28;19928;-59
2023/07/17 05:20:48;;;;;;;;;;;;;;;;;;5099696;28;19959;-59
2023/07/17 05:23:14;;;;;;;;;;;;;;;;;;5104466;28;20359;-59
2023/07/17 05:25:40;;;;;;;;;;;;;;;;;;5096641;28;19912;-60
2023/07/17 05:28:06;;;;;;;;;;;;;;;;;;5095271;28;19984;-59
2023/07/17 05:30:32;;;;;;;;;;;;;;;;;;5094341;28;19942;-59
2023/07/17 05:32:58;;;;;;;;;;;;;;;;;;5106153;28;20453;-59
2023/07/17 05:35:24;;;;;;;;;;;;;;;;;;5114857;28;19912;-59
2023/07/17 05:37:50;;;;;;;;;;;;;;;;;;5103598;28;19962;-59
2023/07/17 05:40:16;;;;;;;;;;;;;;;;;;5100498;28;20032;-59
2023/07/17 05:42:42;;;;;;;;;;;;;;;;;;5096228;28;19923;-59
2023/07/17 05:45:08;;;;;;;;;;;;;;;;;;5098888;28;19950;-59
2023/07/17 05:47:34;;;;;;;;;;;;;;;;;;5114936;28;20691;-59
2023/07/17 05:49:59;;;;;;;;;;;;;;;;;;5095483;28;19961;-59
2023/07/17 05:52:25;;;;;;;;;;;;;;;;;;5094701;28;19908;-59
2023/07/17 05:54:51;;;;;;;;;;;;;;;;;;5095650;28;20428;-59
2023/07/17 05:57:17;;;;;;;;;;;;;;;;;;5098270;28;19922;-60
2023/07/17 05:59:43;;;;;;;;;;;;;;;;;;5096988;28;19908;-59
2023/07/17 06:02:09;;;;;;;;;;;;;;;;;;5095518;28;20023;-59
2023/07/17 06:04:35;;;;;;;;;;;;;;;;;;5096912;28;20003;-59
2023/07/17 06:07:01;;;;;;;;;;;;;;;;;;5094562;28;19995;-60
2023/07/17 06:09:27;;;;;;;;;;;;;;;;;;5104453;28;19915;-59
2023/07/17 06:11:53;;;;;;;;;;;;;;;;;;5093667;28;19921;-59
2023/07/17 06:14:19;;;;;;;;;;;;;;;;;;5112374;28;20020;-59
2023/07/17 06:16:45;;;;;;;;;;;;;;;;;;5097002;28;19912;-60
2023/07/17 06:19:10;;;;;;;;;;;;;;;;;;5114533;28;19912;-59
2023/07/17 06:21:36;;;;;;;;;;;;;;;;;;5094836;28;19915;-59
2023/07/17 06:24:03;;;;;;;;;;;;;;;;;;5113072;28;19947;-60
2023/07/17 06:26:29;;;;;;;;;;;;;;;;;;5114487;28;20017;-59
2023/07/17 06:28:55;;;;;;;;;;;;;;;;;;5112237;28;19916;-59
2023/07/17 06:31:21;;;;;;;;;;;;;;;;;;5112903;28;20260;-59
2023/07/17 06:33:47;;;;;;;;;;;;;;;;;;5099465;28;19912;-60
2023/07/17 06:36:13;;;;;;;;;;;;;;;;;;5108651;28;20003;-59
2023/07/17 06:38:39;;;;;;;;;;;;;;;;;;5104129;28;19912;-59
2023/07/17 06:41:05;;;;;;;;;;;;;;;;;;5097820;28;19908;-60
2023/07/17 06:43:30;;;;;;;;;;;;;;;;;;5104602;28;20280;-59
2023/07/17 06:45:57;;;;;;;;;;;;;;;;;;5094221;28;19916;-59
2023/07/17 06:48:23;;;;;;;;;;;;;;;;;;5093596;28;20638;-59
2023/07/17 06:50:49;;;;;;;;;;;;;;;;;;5099953;28;19911;-60
2023/07/17 06:53:15;;;;;;;;;;;;;;;;;;5100340;28;19922;-59
2023/07/17 06:55:40;;;;;;;;;;;;;;;;;;5110444;28;19951;-59
2023/07/17 06:58:06;;;;;;;;;;;;;;;;;;5107667;28;20438;-59
2023/07/17 07:00:32;;;;;;;;;;;;;;;;;;5095189;28;19916;-59
2023/07/17 07:02:58;;;;;;;;;;;;;;;;;;5094408;28;19990;-59
2023/07/17 07:05:24;;;;;;;;;;;;;;;;;;5093970;28;19912;-59
2023/07/17 07:07:50;;;;;;;;;;;;;;;;;;5104311;28;19919;-59
2023/07/17 07:10:16;;;;;;;;;;;;;;;;;;5104128;28;19912;-59
2023/07/17 07:12:42;;;;;;;;;;;;;;;;;;5094194;28;19915;-59
2023/07/17 07:15:09;;;;;;;;;;;;;;;;;;5101481;28;20019;-60
2023/07/17 07:17:34;;;;;;;;;;;;;;;;;;5101736;28;19923;-59
2023/07/17 07:20:00;;;;;;;;;;;;;;;;;;5103181;28;19920;-59
2023/07/17 07:22:26;;;;;;;;;;;;;;;;;;5097793;28;20375;-59
2023/07/17 07:24:52;;;;;;;;;;;;;;;;;;5094457;28;19997;-59
2023/07/17 07:27:18;;;;;;;;;;;;;;;;;;5112264;28;20264;-59
2023/07/17 07:29:44;;;;;;;;;;;;;;;;;;5106517;28;19916;-60
2023/07/17 07:32:10;;;;;;;;;;;;;;;;;;5095678;28;19972;-59
2023/07/17 07:34:36;;;;;;;;;;;;;;;;;;5093466;28;19920;-59
2023/07/17 07:37:02;;;;;;;;;;;;;;;;;;5106114;28;19966;-59
2023/07/17 07:39:28;;;;;;;;;;;;;;;;;;5104235;28;19956;-60
2023/07/17 07:41:54;;;;;;;;;;;;;;;;;;5099454;28;20238;-60
2023/07/17 07:44:20;;;;;;;;;;;;;;;;;;5102271;28;19912;-60
2023/07/17 07:46:46;;;;;;;;;;;;;;;;;;5096501;28;19951;-60
2023/07/17 07:49:12;;;;;;;;;;;;;;;;;;5105917;28;20014;-60
2023/07/17 07:51:38;;;;;;;;;;;;;;;;;;5103769;28;19959;-60
2023/07/17 07:54:04;;;;;;;;;;;;;;;;;;5103376;28;19920;-60
2023/07/17 07:56:30;;;;;;;;;;;;;;;;;;5097584;28;20466;-60
2023/07/17 07:58:55;;;;;;;;;;;;;;;;;;5096955;28;19970;-60
2023/07/17 08:01:21;;;;;;;;;;;;;;;;;;5099133;28;19918;-60
2023/07/17 08:03:47;;;;;;;;;;;;;;;;;;5100950;28;19941;-59
2023/07/17 08:06:13;;;;;;;;;;;;;;;;;;5107869;28;19928;-59
2023/07/17 08:08:39;;;;;;;;;;;;;;;;;;5098772;28;19912;-59
2023/07/17 08:11:05;;;;;;;;;;;;;;;;;;5089407;28;19955;-60
2023/07/17 08:13:31;;;;;;;;;;;;;;;;;;5089642;28;20290;-60
2023/07/17 08:15:57;;;;;;;;;;;;;;;;;;5093016;28;20007;-59
2023/07/17 08:18:23;;;;;;;;;;;;;;;;;;5102532;28;19924;-58
2023/07/17 08:20:49;;;;;;;;;;;;;;;;;;5100619;28;19955;-58
2023/07/17 08:23:15;;;;;;;;;;;;;;;;;;5106594;28;19955;-59
2023/07/17 08:25:40;;;;;;;;;;;;;;;;;;5102671;28;20282;-59
2023/07/17 08:28:06;;;;;;;;;;;;;;;;;;5096718;28;20063;-60
2023/07/17 08:30:32;;;;;;;;;;;;;;;;;;5091465;28;20434;-60
2023/07/17 08:32:58;;;;;;;;;;;;;;;;;;5089857;28;20548;-60
2023/07/17 08:35:24;;;;;;;;;;;;;;;;;;5104012;28;19912;-60
2023/07/17 08:37:50;;;;;;;;;;;;;;;;;;5092998;28;20395;-60
2023/07/17 08:40:16;;;;;;;;;;;;;;;;;;5091886;28;19950;-61
2023/07/17 08:42:42;;;;;;;;;;;;;;;;;;5096799;28;19924;-60
2023/07/17 08:45:08;;;;;;;;;;;;;;;;;;5109506;28;19914;-60
2023/07/17 08:47:34;;;;;;;;;;;;;;;;;;5100423;28;20007;-61
2023/07/17 08:50:00;;;;;;;;;;;;;;;;;;5100908;28;19912;-61
2023/07/17 08:52:26;;;;;;;;;;;;;;;;;;5103364;28;20501;-61
2023/07/17 08:54:52;;;;;;;;;;;;;;;;;;5101851;28;20287;-59
2023/07/17 08:57:17;;;;;;;;;;;;;;;;;;5110369;28;19916;-61
2023/07/17 08:59:43;;;;;;;;;;;;;;;;;;5100626;28;19912;-57
2023/07/17 09:02:09;;;;;;;;;;;;;;;;;;5101812;28;19990;-60
2023/07/17 09:04:35;;;;;;;;;;;;;;;;;;5103740;28;20306;-58
2023/07/17 09:07:01;;;;;;;;;;;;;;;;;;5103176;28;19912;-60
2023/07/17 09:09:27;;;;;;;;;;;;;;;;;;5115561;28;20006;-60
2023/07/17 09:11:53;;;;;;;;;;;;;;;;;;5106948;28;19939;-59
2023/07/17 09:14:19;;;;;;;;;;;;;;;;;;5110721;28;19916;-60
2023/07/17 09:16:46;;;;;;;;;;;;;;;;;;5114725;28;19918;-59
2023/07/17 09:19:12;;;;;;;;;;;;;;;;;;5114500;27;19919;-60
2023/07/17 09:21:38;;;;;;;;;;;;;;;;;;5101628;28;20019;-60
2023/07/17 09:24:04;;;;;;;;;;;;;;;;;;5109618;28;20050;-60
2023/07/17 09:26:30;;;;;;;;;;;;;;;;;;5115696;28;19914;-59
2023/07/17 09:28:56;;;;;;;;;;;;;;;;;;5115332;28;20006;-59
2023/07/17 09:31:23;;;;;;;;;;;;;;;;;;5103741;28;19916;-59
2023/07/17 09:33:48;;;;;;;;;;;;;;;;;;5114017;28;19938;-60
2023/07/17 09:36:14;;;;;;;;;;;;;;;;;;5099652;28;19916;-56
2023/07/17 09:38:40;;;;;;;;;;;;;;;;;;5091945;28;19948;-57
2023/07/17 09:41:06;;;;;;;;;;;;;;;;;;5107101;28;19946;-56
2023/07/17 09:43:32;;;;;;;;;;;;;;;;;;5102017;28;20428;-56
2023/07/17 09:45:58;;;;;;;;;;;;;;;;;;5094943;28;19918;-56
2023/07/17 09:48:24;;;;;;;;;;;;;;;;;;5094702;28;19908;-56
2023/07/17 09:50:50;;;;;;;;;;;;;;;;;;5094097;28;20003;-56
2023/07/17 09:53:16;;;;;;;;;;;;;;;;;;5093431;28;19916;-57
2023/07/17 09:55:42;;;;;;;;;;;;;;;;;;5093410;28;20114;-56
2023/07/17 09:58:08;;;;;;;;;;;;;;;;;;5095266;28;19912;-56
2023/07/17 10:00:34;;;;;;;;;;;;;;;;;;5094285;28;19930;-56
2023/07/17 10:03:00;;;;;;;;;;;;;;;;;;5094355;28;19948;-56
2023/07/17 10:05:26;;;;;;;;;;;;;;;;;;5094228;28;19951;-56
2023/07/17 10:07:52;;;;;;;;;;;;;;;;;;5092235;28;19995;-56
2023/07/17 10:10:17;;;;;;;;;;;;;;;;;;5092313;28;19916;-56
2023/07/17 10:12:43;;;;;;;;;;;;;;;;;;5105220;28;20398;-56
2023/07/17 10:15:09;;;;;;;;;;;;;;;;;;5092473;28;19954;-56
2023/07/17 10:17:35;;;;;;;;;;;;;;;;;;5094236;28;19958;-56
2023/07/17 10:20:01;;;;;;;;;;;;;;;;;;5103989;28;20595;-57
2023/07/17 10:22:27;;;;;;;;;;;;;;;;;;5098276;28;19985;-56
2023/07/17 10:24:53;;;;;;;;;;;;;;;;;;5100892;28;19915;-57
2023/07/17 10:27:19;;;;;;;;;;;;;;;;;;5101735;28;20302;-57
2023/07/17 10:29:45;;;;;;;;;;;;;;;;;;5113860;28;20303;-57
2023/07/17 10:32:11;;;;;;;;;;;;;;;;;;5108691;28;19995;-57
2023/07/17 10:34:36;;;;;;;;;;;;;;;;;;5094279;28;20058;-57
2023/07/17 10:37:02;;;;;;;;;;;;;;;;;;5101831;28;20328;-57
2023/07/17 10:39:28;;;;;;;;;;;;;;;;;;5105689;28;19908;-55
2023/07/17 10:41:54;;;;;;;;;;;;;;;;;;5103199;28;19912;-55
2023/07/17 10:44:20;;;;;;;;;;;;;;;;;;5107731;28;20395;-55
2023/07/17 10:46:46;;;;;;;;;;;;;;;;;;5092295;28;19912;-56
2023/07/17 10:49:12;;;;;;;;;;;;;;;;;;5099228;28;19920;-55
2023/07/17 10:51:38;;;;;;;;;;;;;;;;;;5097707;28;19966;-55
2023/07/17 10:54:04;;;;;;;;;;;;;;;;;;5099065;28;19983;-55
2023/07/17 10:56:30;;;;;;;;;;;;;;;;;;5097416;28;19924;-56
2023/07/17 10:58:56;;;;;;;;;;;;;;;;;;5097538;28;19915;-54
2023/07/17 11:01:21;;;;;;;;;;;;;;;;;;5096688;28;20304;-55
2023/07/17 11:03:48;;;;;;;;;;;;;;;;;;5100333;28;19959;-56
2023/07/17 11:06:14;;;;;;;;;;;;;;;;;;5095479;28;19912;-55
2023/07/17 11:08:40;;;;;;;;;;;;;;;;;;5098142;28;19912;-55
2023/07/17 11:11:05;;;;;;;;;;;;;;;;;;5102993;28;19946;-55
2023/07/17 11:13:31;;;;;;;;;;;;;;;;;;5098581;28;19912;-55
2023/07/17 11:15:57;;;;;;;;;;;;;;;;;;5091664;28;20496;-55
2023/07/17 11:18:23;;;;;;;;;;;;;;;;;;5093006;28;19920;-57
2023/07/17 11:20:49;;;;;;;;;;;;;;;;;;5100136;28;20521;-57
2023/07/17 11:23:15;;;;;;;;;;;;;;;;;;5092426;28;20007;-57
2023/07/17 11:25:41;;;;;;;;;;;;;;;;;;5092954;28;19912;-57
2023/07/17 11:28:07;;;;;;;;;;;;;;;;;;5107082;28;19997;-57
2023/07/17 11:30:33;;;;;;;;;;;;;;;;;;5089621;28;20859;-57
2023/07/17 11:32:59;;;;;;;;;;;;;;;;;;5097891;28;20398;-55
2023/07/17 11:35:25;;;;;;;;;;;;;;;;;;5099831;28;19923;-55
2023/07/17 11:37:51;;;;;;;;;;;;;;;;;;5101144;28;19951;-57
2023/07/17 11:40:17;;;;;;;;;;;;;;;;;;5096650;28;19916;-57
2023/07/17 11:42:42;;;;;;;;;;;;;;;;;;5095747;28;20337;-55
2023/07/17 11:45:08;;;;;;;;;;;;;;;;;;5092572;28;19916;-55
2023/07/17 11:47:34;;;;;;;;;;;;;;;;;;5109255;28;19943;-54
2023/07/17 11:50:01;;;;;;;;;;;;;;;;;;5098346;28;19919;-55
2023/07/17 11:52:27;;;;;;;;;;;;;;;;;;5108376;28;19912;-55
2023/07/17 11:54:53;;;;;;;;;;;;;;;;;;5108516;28;19947;-55
2023/07/17 11:57:18;;;;;;;;;;;;;;;;;;5097987;28;20364;-55
2023/07/17 11:59:48;;;;;;;;;;;;;;;;;;5098365;28;19930;-56
2023/07/17 12:02:14;;;;;;;;;;;;;;;;;;5096419;28;20400;-55
2023/07/17 12:04:41;;;;;;;;;;;;;;;;;;5099319;28;20003;-55
2023/07/17 12:07:07;;;;;;;;;;;;;;;;;;5085762;28;19927;-56
2023/07/17 12:09:33;;;;;;;;;;;;;;;;;;5087547;28;19995;-57
2023/07/17 12:11:59;;;;;;;;;;;;;;;;;;5094782;28;19951;-56
2023/07/17 12:14:25;;;;;;;;;;;;;;;;;;5091114;28;20332;-56
2023/07/17 12:16:51;;;;;;;;;;;;;;;;;;5088895;28;20011;-56
2023/07/17 12:19:18;;;;;;;;;;;;;;;;;;5090283;28;19924;-56
2023/07/17 12:21:44;;;;;;;;;;;;;;;;;;5097683;28;20399;-56
2023/07/17 12:24:10;;;;;;;;;;;;;;;;;;5092758;28;19912;-57
2023/07/17 12:26:36;;;;;;;;;;;;;;;;;;5094382;28;19916;-56
2023/07/17 12:29:01;;;;;;;;;;;;;;;;;;5101520;28;19962;-56
2023/07/17 12:31:27;;;;;;;;;;;;;;;;;;5096229;28;20360;-56
2023/07/17 12:33:54;;;;;;;;;;;;;;;;;;5098358;28;20284;-56
2023/07/17 12:36:20;;;;;;;;;;;;;;;;;;5100638;28;20369;-56
2023/07/17 12:38:46;;;;;;;;;;;;;;;;;;5099876;28;19919;-56
2023/07/17 12:41:11;;;;;;;;;;;;;;;;;;5093815;28;19951;-56
2023/07/17 12:43:37;;;;;;;;;;;;;;;;;;5100339;28;20436;-56
2023/07/17 12:46:03;;;;;;;;;;;;;;;;;;5090720;28;19985;-55
2023/07/17 12:48:29;;;;;;;;;;;;;;;;;;5093212;28;20071;-56
2023/07/17 12:50:55;;;;;;;;;;;;;;;;;;5100200;28;19951;-56
2023/07/17 12:53:21;;;;;;;;;;;;;;;;;;5098661;28;20297;-56
2023/07/17 12:55:47;;;;;;;;;;;;;;;;;;5102410;28;19918;-56
2023/07/17 12:58:13;;;;;;;;;;;;;;;;;;5092507;28;20860;-56
2023/07/17 13:00:39;;;;;;;;;;;;;;;;;;5088925;28;19912;-56
2023/07/17 13:03:05;;;;;;;;;;;;;;;;;;5094766;28;20064;-56
2023/07/17 13:05:31;;;;;;;;;;;;;;;;;;5100300;28;19970;-56
2023/07/17 13:07:56;;;;;;;;;;;;;;;;;;5100728;28;20435;-56
2023/07/17 13:10:22;;;;;;;;;;;;;;;;;;5109570;28;19951;-56
2023/07/17 13:12:48;;;;;;;;;;;;;;;;;;5095891;28;19946;-57
2023/07/17 13:15:14;;;;;;;;;;;;;;;;;;5101452;28;20496;-56
2023/07/17 13:17:40;;;;;;;;;;;;;;;;;;5106992;28;20332;-56
2023/07/17 13:20:06;;;;;;;;;;;;;;;;;;5103496;28;19908;-56
2023/07/17 13:22:32;;;;;;;;;;;;;;;;;;5090272;28;19980;-56
2023/07/17 13:24:58;;;;;;;;;;;;;;;;;;5090662;28;19916;-57
2023/07/17 13:27:24;;;;;;;;;;;;;;;;;;5094158;28;20016;-56
2023/07/17 13:29:50;;;;;;;;;;;;;;;;;;5111001;28;20422;-56
2023/07/17 13:32:15;;;;;;;;;;;;;;;;;;5098875;28;20349;-56
2023/07/17 13:34:41;;;;;;;;;;;;;;;;;;5105279;28;19951;-56
2023/07/17 13:37:07;;;;;;;;;;;;;;;;;;5098546;28;19998;-56
2023/07/17 13:39:33;;;;;;;;;;;;;;;;;;5095606;28;20390;-56
2023/07/17 13:41:59;;;;;;;;;;;;;;;;;;5105510;28;19960;-57
2023/07/17 13:44:25;;;;;;;;;;;;;;;;;;5111952;28;19915;-57
2023/07/17 13:46:51;;;;;;;;;;;;;;;;;;5094287;28;19912;-57
2023/07/17 13:49:17;;;;;;;;;;;;;;;;;;5097590;28;19912;-57
2023/07/17 13:51:45;;;;;;;;;;;;;;;;;;5097423;28;19959;-57
2023/07/17 13:54:11;;;;;;;;;;;;;;;;;;5097732;28;19920;-56
2023/07/17 13:56:37;;;;;;;;;;;;;;;;;;5096806;28;19966;-57
2023/07/17 13:59:02;;;;;;;;;;;;;;;;;;5108155;28;20573;-57
2023/07/17 14:01:28;;;;;;;;;;;;;;;;;;5104889;28;19916;-57
2023/07/17 14:03:54;;;;;;;;;;;;;;;;;;5096183;28;19953;-57
2023/07/17 14:06:20;;;;;;;;;;;;;;;;;;5104627;28;20281;-57
2023/07/17 14:08:46;;;;;;;;;;;;;;;;;;5094321;28;19922;-57
2023/07/17 14:11:12;;;;;;;;;;;;;;;;;;5093059;28;19943;-57
2023/07/17 14:13:38;;;;;;;;;;;;;;;;;;5095733;28;20323;-57
2023/07/17 14:16:04;;;;;;;;;;;;;;;;;;5094641;28;19986;-56
2023/07/17 14:18:30;;;;;;;;;;;;;;;;;;5094175;28;19920;-57
2023/07/17 14:20:55;;;;;;;;;;;;;;;;;;5093876;28;20478;-57
2023/07/17 14:23:22;;;;;;;;;;;;;;;;;;5108745;28;19916;-57
2023/07/17 14:25:48;;;;;;;;;;;;;;;;;;5096595;28;19927;-56
2023/07/17 14:28:14;;;;;;;;;;;;;;;;;;5097124;28;19908;-57
2023/07/17 14:30:40;;;;;;;;;;;;;;;;;;5104269;28;19912;-58
2023/07/17 14:33:06;;;;;;;;;;;;;;;;;;5110679;27;20006;-57
2023/07/17 14:35:32;;;;;;;;;;;;;;;;;;5103882;28;19999;-56
2023/07/17 14:37:58;;;;;;;;;;;;;;;;;;5112742;28;20350;-57
2023/07/17 14:40:24;;;;;;;;;;;;;;;;;;5108211;28;20020;-56
2023/07/17 14:42:50;;;;;;;;;;;;;;;;;;5093128;28;19916;-56
2023/07/17 14:45:16;;;;;;;;;;;;;;;;;;5100291;28;19955;-57
2023/07/17 14:47:42;;;;;;;;;;;;;;;;;;5099213;28;19916;-56
2023/07/17 14:50:07;;;;;;;;;;;;;;;;;;5094945;28;19966;-56
2023/07/17 14:52:33;;;;;;;;;;;;;;;;;;5091562;28;19920;-56
2023/07/17 14:54:59;;;;;;;;;;;;;;;;;;5108126;28;19918;-56
2023/07/17 14:57:25;;;;;;;;;;;;;;;;;;5105918;28;19963;-56
2023/07/17 14:59:51;;;;;;;;;;;;;;;;;;5091296;28;19997;-56
2023/07/17 15:02:17;;;;;;;;;;;;;;;;;;5093816;28;20272;-57
2023/07/17 15:04:43;;;;;;;;;;;;;;;;;;5105905;28;19911;-56
2023/07/17 15:07:09;;;;;;;;;;;;;;;;;;5102019;28;19962;-56
2023/07/17 15:09:35;;;;;;;;;;;;;;;;;;5097524;28;19951;-56
2023/07/17 15:12:01;;;;;;;;;;;;;;;;;;5098403;28;19947;-56
2023/07/17 15:14:27;;;;;;;;;;;;;;;;;;5089645;28;20570;-58
2023/07/17 15:16:52;;;;;;;;;;;;;;;;;;5101362;28;19930;-57
2023/07/17 15:19:18;;;;;;;;;;;;;;;;;;5094489;28;20004;-57
2023/07/17 15:21:44;;;;;;;;;;;;;;;;;;5092186;28;19919;-57
2023/07/17 15:24:10;;;;;;;;;;;;;;;;;;5092667;28;20356;-57
2023/07/17 15:26:36;;;;;;;;;;;;;;;;;;5096234;28;19974;-58
2023/07/17 15:29:02;;;;;;;;;;;;;;;;;;5092347;28;19999;-57
2023/07/17 15:31:28;;;;;;;;;;;;;;;;;;5099028;28;19951;-57
2023/07/17 15:33:55;;;;;;;;;;;;;;;;;;5112981;28;19908;-57
2023/07/17 15:36:21;;;;;;;;;;;;;;;;;;5112750;28;19918;-57
2023/07/17 15:38:47;;;;;;;;;;;;;;;;;;5112780;28;19919;-58
2023/07/17 15:41:13;;;;;;;;;;;;;;;;;;5108066;28;19959;-57
2023/07/17 15:43:39;;;;;;;;;;;;;;;;;;5096748;28;19930;-57
2023/07/17 15:46:05;;;;;;;;;;;;;;;;;;5092979;28;19908;-57
2023/07/17 15:48:31;;;;;;;;;;;;;;;;;;5091921;28;19954;-57
2023/07/17 15:50:56;;;;;;;;;;;;;;;;;;5091972;28;20026;-57
2023/07/17 15:53:23;;;;;;;;;;;;;;;;;;5089716;28;19926;-57
2023/07/17 15:55:49;;;;;;;;;;;;;;;;;;5091104;28;19927;-57
2023/07/17 15:58:15;;;;;;;;;;;;;;;;;;5099279;28;19912;-58
2023/07/17 16:00:41;;;;;;;;;;;;;;;;;;5106418;28;19912;-57
2023/07/17 16:03:07;;;;;;;;;;;;;;;;;;5110629;28;20364;-58
2023/07/17 16:05:32;;;;;;;;;;;;;;;;;;5111692;28;20010;-57
2023/07/17 16:07:58;;;;;;;;;;;;;;;;;;5091869;28;19916;-57
2023/07/17 16:10:24;;;;;;;;;;;;;;;;;;5100479;28;19911;-57
2023/07/17 16:12:51;;;;;;;;;;;;;;;;;;5097406;28;19995;-57
2023/07/17 16:15:17;;;;;;;;;;;;;;;;;;5104950;28;20317;-58
2023/07/17 16:17:43;;;;;;;;;;;;;;;;;;5098176;28;20126;-59
2023/07/17 16:20:09;;;;;;;;;;;;;;;;;;5104265;28;20006;-57
2023/07/17 16:22:35;;;;;;;;;;;;;;;;;;5104085;28;20010;-57
2023/07/17 16:25:01;;;;;;;;;;;;;;;;;;5111064;28;20391;-59
2023/07/17 16:27:27;;;;;;;;;;;;;;;;;;5097569;28;20016;-60
2023/07/17 16:29:53;;;;;;;;;;;;;;;;;;5097211;28;19916;-57
2023/07/17 16:32:19;;;;;;;;;;;;;;;;;;5097546;28;20264;-59
2023/07/17 16:34:45;;;;;;;;;;;;;;;;;;5110095;28;19977;-59
2023/07/17 16:37:11;;;;;;;;;;;;;;;;;;5096636;28;19976;-59